Terminal Aerodrome Forecast
Issued by NWS

Home | Current Version | Previous Version | Text Only | Print | Product List | Glossary On
Versions: 1 2 3 4 5 6 7 8 9 10 11 12
000
FTUS45 KTFX 271700
TAFCTB
TAF
KCTB 271728Z 2718/2818 26015KT P6SM BKN140 OVC200
     FM272000 25020KT P6SM BKN140 OVC200
     FM281000 30015KT P6SM SCT140 SCT200=

USA.gov is the U.S. government's official web portal to all federal, state and local government web resources and services.